sensor_id;sensor_type;location;lat;lon;timestamp;pressure;altitude;pressure_sealevel;temperature;humidity
23473;BME280;11909;52.516;13.564;2022-12-07T00:01:04;100614.78;;;2.08;100.00
23473;BME280;11909;52.516;13.564;2022-12-07T00:03:32;100614.34;;;2.11;100.00
23473;BME280;11909;52.516;13.564;2022-12-07T00:06:01;100613.06;;;2.13;100.00
23473;BME280;11909;52.516;13.564;2022-12-07T00:08:30;100622.47;;;2.11;100.00
23473;BME280;11909;52.516;13.564;2022-12-07T00:11:01;100622.19;;;2.00;100.00
23473;BME280;11909;52.516;13.564;2022-12-07T00:13:31;100620.59;;;2.11;100.00
23473;BME280;11909;52.516;13.564;2022-12-07T00:16:00;100617.66;;;1.94;100.00
23473;BME280;11909;52.516;13.564;2022-12-07T00:18:29;100614.59;;;1.91;100.00
23473;BME280;11909;52.516;13.564;2022-12-07T00:21:00;100608.41;;;1.83;100.00
23473;BME280;11909;52.516;13.564;2022-12-07T00:23:29;100603.38;;;1.87;100.00
23473;BME280;11909;52.516;13.564;2022-12-07T00:26:03;100608.25;;;1.97;100.00
23473;BME280;11909;52.516;13.564;2022-12-07T00:28:32;100603.63;;;1.85;100.00
23473;BME280;11909;52.516;13.564;2022-12-07T00:31:05;100597.38;;;1.85;100.00
23473;BME280;11909;52.516;13.564;2022-12-07T00:33:33;100609.16;;;1.91;100.00
23473;BME280;11909;52.516;13.564;2022-12-07T00:36:02;100607.06;;;1.93;100.00
23473;BME280;11909;52.516;13.564;2022-12-07T00:38:32;100604.09;;;1.94;100.00
23473;BME280;11909;52.516;13.564;2022-12-07T00:41:02;100600.81;;;1.92;100.00
23473;BME280;11909;52.516;13.564;2022-12-07T00:43:31;100590.09;;;1.85;100.00
23473;BME280;11909;52.516;13.564;2022-12-07T00:45:59;100590.69;;;1.88;100.00
23473;BME280;11909;52.516;13.564;2022-12-07T00:48:27;100594.50;;;1.80;100.00
23473;BME280;11909;52.516;13.564;2022-12-07T00:50:55;100605.69;;;1.83;100.00
23473;BME280;11909;52.516;13.564;2022-12-07T00:53:23;100606.38;;;1.79;100.00
23473;BME280;11909;52.516;13.564;2022-12-07T00:55:51;100596.69;;;1.71;100.00
23473;BME280;11909;52.516;13.564;2022-12-07T00:58:19;100591.34;;;1.64;100.00
23473;BME280;11909;52.516;13.564;2022-12-07T01:00:48;100593.59;;;1.67;100.00
23473;BME280;11909;52.516;13.564;2022-12-07T01:03:16;100591.50;;;1.69;100.00
23473;BME280;11909;52.516;13.564;2022-12-07T01:05:51;100596.44;;;1.72;100.00
23473;BME280;11909;52.516;13.564;2022-12-07T01:08:20;100595.25;;;1.68;100.00
23473;BME280;11909;52.516;13.564;2022-12-07T01:10:48;100591.28;;;1.71;100.00
23473;BME280;11909;52.516;13.564;2022-12-07T01:13:16;100587.81;;;1.64;100.00
23473;BME280;11909;52.516;13.564;2022-12-07T01:15:44;100590.94;;;1.61;100.00
23473;BME280;11909;52.516;13.564;2022-12-07T01:18:13;100585.34;;;1.62;99.18
23473;BME280;11909;52.516;13.564;2022-12-07T01:20:41;100596.66;;;1.52;99.41
23473;BME280;11909;52.516;13.564;2022-12-07T01:23:09;100592.38;;;1.45;100.00
23473;BME280;11909;52.516;13.564;2022-12-07T01:25:36;100590.66;;;1.50;98.97
23473;BME280;11909;52.516;13.564;2022-12-07T01:28:04;100591.78;;;1.42;99.61
23473;BME280;11909;52.516;13.564;2022-12-07T01:30:32;100586.16;;;1.44;99.73
23473;BME280;11909;52.516;13.564;2022-12-07T01:32:59;100581.78;;;1.43;99.39
23473;BME280;11909;52.516;13.564;2022-12-07T01:35:28;100572.63;;;1.44;99.06
23473;BME280;11909;52.516;13.564;2022-12-07T01:37:56;100574.13;;;1.40;99.45
23473;BME280;11909;52.516;13.564;2022-12-07T01:40:24;100572.03;;;1.42;99.62
23473;BME280;11909;52.516;13.564;2022-12-07T01:42:51;100570.28;;;1.48;99.33
23473;BME280;11909;52.516;13.564;2022-12-07T01:45:37;100579.97;;;1.55;99.02
23473;BME280;11909;52.516;13.564;2022-12-07T01:48:05;100573.06;;;1.41;98.58
23473;BME280;11909;52.516;13.564;2022-12-07T01:50:37;100565.47;;;1.50;98.46
23473;BME280;11909;52.516;13.564;2022-12-07T01:53:08;100570.22;;;1.54;97.00
23473;BME280;11909;52.516;13.564;2022-12-07T01:55:40;100570.66;;;1.51;97.15
23473;BME280;11909;52.516;13.564;2022-12-07T01:58:10;100568.72;;;1.40;96.84
23473;BME280;11909;52.516;13.564;2022-12-07T02:00:38;100571.63;;;1.38;97.57
23473;BME280;11909;52.516;13.564;2022-12-07T02:03:09;100560.06;;;1.31;97.67
23473;BME280;11909;52.516;13.564;2022-12-07T02:05:40;100558.13;;;1.38;97.83
23473;BME280;11909;52.516;13.564;2022-12-07T02:08:09;100552.25;;;1.41;97.17
23473;BME280;11909;52.516;13.564;2022-12-07T02:10:38;100556.34;;;1.51;95.81
23473;BME280;11909;52.516;13.564;2022-12-07T02:13:08;100543.09;;;1.42;96.79
23473;BME280;11909;52.516;13.564;2022-12-07T02:15:51;100552.72;;;1.57;94.85
23473;BME280;11909;52.516;13.564;2022-12-07T02:18:32;100560.22;;;1.36;95.55
23473;BME280;11909;52.516;13.564;2022-12-07T02:21:09;100549.63;;;1.35;96.91
23473;BME280;11909;52.516;13.564;2022-12-07T02:23:45;100552.72;;;1.38;96.35
23473;BME280;11909;52.516;13.564;2022-12-07T02:26:50;100552.50;;;1.40;96.59
23473;BME280;11909;52.516;13.564;2022-12-07T02:29:27;100543.53;;;1.39;96.21
23473;BME280;11909;52.516;13.564;2022-12-07T02:32:01;100535.22;;;1.41;96.20
23473;BME280;11909;52.516;13.564;2022-12-07T02:34:39;100539.13;;;1.45;96.31
23473;BME280;11909;52.516;13.564;2022-12-07T02:37:17;100530.22;;;1.38;95.84
23473;BME280;11909;52.516;13.564;2022-12-07T02:39:49;100527.22;;;1.27;96.79
23473;BME280;11909;52.516;13.564;2022-12-07T02:42:23;100526.94;;;1.36;96.34
23473;BME280;11909;52.516;13.564;2022-12-07T02:44:54;100527.09;;;1.41;94.93
23473;BME280;11909;52.516;13.564;2022-12-07T02:47:23;100526.66;;;1.44;94.36
23473;BME280;11909;52.516;13.564;2022-12-07T02:49:52;100524.75;;;1.45;94.04
23473;BME280;11909;52.516;13.564;2022-12-07T02:52:20;100523.56;;;1.40;94.52
23473;BME280;11909;52.516;13.564;2022-12-07T02:54:47;100520.03;;;1.40;94.62
23473;BME280;11909;52.516;13.564;2022-12-07T02:57:37;100511.91;;;1.21;95.15
23473;BME280;11909;52.516;13.564;2022-12-07T03:00:12;100515.31;;;1.35;94.54
23473;BME280;11909;52.516;13.564;2022-12-07T03:02:49;100516.94;;;1.36;95.08
23473;BME280;11909;52.516;13.564;2022-12-07T03:05:31;100509.81;;;1.23;95.74
23473;BME280;11909;52.516;13.564;2022-12-07T03:08:11;100508.09;;;1.29;96.08
23473;BME280;11909;52.516;13.564;2022-12-07T03:10:48;100503.03;;;1.14;96.97
23473;BME280;11909;52.516;13.564;2022-12-07T03:13:23;100496.50;;;1.22;96.99
23473;BME280;11909;52.516;13.564;2022-12-07T03:15:58;100488.25;;;1.17;97.40
23473;BME280;11909;52.516;13.564;2022-12-07T03:18:32;100484.88;;;1.21;96.92
23473;BME280;11909;52.516;13.564;2022-12-07T03:21:05;100483.06;;;1.15;98.02
23473;BME280;11909;52.516;13.564;2022-12-07T03:23:37;100480.81;;;1.12;98.41
23473;BME280;11909;52.516;13.564;2022-12-07T03:26:08;100472.63;;;1.19;98.22
23473;BME280;11909;52.516;13.564;2022-12-07T03:28:42;100466.63;;;1.17;98.47
23473;BME280;11909;52.516;13.564;2022-12-07T03:31:16;100460.09;;;1.24;98.09
23473;BME280;11909;52.516;13.564;2022-12-07T03:33:49;100460.75;;;1.20;97.77
23473;BME280;11909;52.516;13.564;2022-12-07T03:36:24;100457.25;;;1.19;98.04
23473;BME280;11909;52.516;13.564;2022-12-07T03:38:58;100446.13;;;1.09;98.82
23473;BME280;11909;52.516;13.564;2022-12-07T03:41:31;100441.22;;;0.99;99.19
23473;BME280;11909;52.516;13.564;2022-12-07T03:44:06;100428.56;;;0.99;99.66
23473;BME280;11909;52.516;13.564;2022-12-07T03:46:39;100428.16;;;0.96;99.39
23473;BME280;11909;52.516;13.564;2022-12-07T03:49:16;100422.63;;;1.09;99.43
23473;BME280;11909;52.516;13.564;2022-12-07T03:51:51;100417.22;;;0.91;99.29
23473;BME280;11909;52.516;13.564;2022-12-07T03:54:24;100412.03;;;0.89;100.00
23473;BME280;11909;52.516;13.564;2022-12-07T03:56:54;100408.44;;;0.95;100.00
23473;BME280;11909;52.516;13.564;2022-12-07T03:59:24;100410.38;;;1.07;99.73
23473;BME280;11909;52.516;13.564;2022-12-07T04:01:55;100404.97;;;1.07;99.76
23473;BME280;11909;52.516;13.564;2022-12-07T04:04:24;100392.75;;;1.04;100.00
23473;BME280;11909;52.516;13.564;2022-12-07T04:06:52;100400.69;;;0.99;100.00
23473;BME280;11909;52.516;13.564;2022-12-07T04:09:21;100393.34;;;1.06;100.00
23473;BME280;11909;52.516;13.564;2022-12-07T04:11:48;100385.47;;;0.86;100.00
23473;BME280;11909;52.516;13.564;2022-12-07T04:14:16;100384.78;;;0.91;100.00
23473;BME280;11909;52.516;13.564;2022-12-07T04:16:47;100379.44;;;0.84;100.00
23473;BME280;11909;52.516;13.564;2022-12-07T04:19:17;100375.03;;;0.90;100.00
23473;BME280;11909;52.516;13.564;2022-12-07T04:21:46;100380.44;;;0.90;100.00
23473;BME280;11909;52.516;13.564;2022-12-07T04:24:14;100379.69;;;0.82;100.00
23473;BME280;11909;52.516;13.564;2022-12-07T04:26:44;100368.13;;;0.94;100.00
23473;BME280;11909;52.516;13.564;2022-12-07T04:29:12;100375.03;;;0.90;100.00
23473;BME280;11909;52.516;13.564;2022-12-07T04:31:40;100371.81;;;0.81;100.00
23473;BME280;11909;52.516;13.564;2022-12-07T04:34:08;100362.84;;;0.80;100.00
23473;BME280;11909;52.516;13.564;2022-12-07T04:36:38;100358.16;;;0.76;100.00
23473;BME280;11909;52.516;13.564;2022-12-07T04:39:08;100352.69;;;0.82;100.00
23473;BME280;11909;52.516;13.564;2022-12-07T04:41:40;100349.88;;;0.89;100.00
23473;BME280;11909;52.516;13.564;2022-12-07T04:44:08;100353.34;;;0.78;100.00
23473;BME280;11909;52.516;13.564;2022-12-07T04:46:35;100342.69;;;0.83;100.00
23473;BME280;11909;52.516;13.564;2022-12-07T04:49:03;100339.25;;;0.76;100.00
23473;BME280;11909;52.516;13.564;2022-12-07T04:51:31;100338.47;;;0.87;100.00
23473;BME280;11909;52.516;13.564;2022-12-07T04:54:00;100332.78;;;0.95;100.00
23473;BME280;11909;52.516;13.564;2022-12-07T04:56:28;100337.41;;;0.88;100.00
23473;BME280;11909;52.516;13.564;2022-12-07T04:58:56;100330.81;;;0.84;100.00
23473;BME280;11909;52.516;13.564;2022-12-07T05:01:23;100327.53;;;0.82;100.00
23473;BME280;11909;52.516;13.564;2022-12-07T05:03:51;100325.41;;;0.84;100.00
23473;BME280;11909;52.516;13.564;2022-12-07T05:06:19;100325.22;;;0.85;100.00
23473;BME280;11909;52.516;13.564;2022-12-07T05:08:47;100323.69;;;0.90;100.00
23473;BME280;11909;52.516;13.564;2022-12-07T05:11:16;100332.53;;;0.97;100.00
23473;BME280;11909;52.516;13.564;2022-12-07T05:13:58;100312.75;;;0.84;100.00
23473;BME280;11909;52.516;13.564;2022-12-07T05:16:26;100317.97;;;0.79;100.00
23473;BME280;11909;52.516;13.564;2022-12-07T05:18:54;100315.81;;;0.88;100.00
23473;BME280;11909;52.516;13.564;2022-12-07T05:21:22;100312.16;;;0.82;100.00
23473;BME280;11909;52.516;13.564;2022-12-07T05:23:50;100310.66;;;0.87;100.00
23473;BME280;11909;52.516;13.564;2022-12-07T05:26:19;100315.72;;;0.95;100.00
23473;BME280;11909;52.516;13.564;2022-12-07T05:28:50;100309.88;;;0.98;100.00
23473;BME280;11909;52.516;13.564;2022-12-07T05:31:18;100320.69;;;0.98;100.00
23473;BME280;11909;52.516;13.564;2022-12-07T05:33:46;100310.56;;;0.93;100.00
23473;BME280;11909;52.516;13.564;2022-12-07T05:36:14;100309.94;;;0.91;100.00
23473;BME280;11909;52.516;13.564;2022-12-07T05:38:42;100301.75;;;0.98;100.00
23473;BME280;11909;52.516;13.564;2022-12-07T05:41:12;100292.84;;;0.97;100.00
23473;BME280;11909;52.516;13.564;2022-12-07T05:43:56;100290.81;;;0.93;100.00
23473;BME280;11909;52.516;13.564;2022-12-07T05:46:24;100288.16;;;1.05;100.00
23473;BME280;11909;52.516;13.564;2022-12-07T05:48:52;100291.19;;;0.96;100.00
23473;BME280;11909;52.516;13.564;2022-12-07T05:51:19;100286.66;;;1.09;100.00
23473;BME280;11909;52.516;13.564;2022-12-07T05:53:47;100287.13;;;1.06;100.00
23473;BME280;11909;52.516;13.564;2022-12-07T05:56:15;100280.94;;;1.17;100.00
23473;BME280;11909;52.516;13.564;2022-12-07T05:58:42;100281.16;;;1.16;100.00
23473;BME280;11909;52.516;13.564;2022-12-07T06:01:29;100282.22;;;1.14;100.00
23473;BME280;11909;52.516;13.564;2022-12-07T06:03:56;100277.63;;;1.15;100.00
23473;BME280;11909;52.516;13.564;2022-12-07T06:06:24;100274.91;;;1.15;100.00
23473;BME280;11909;52.516;13.564;2022-12-07T06:08:52;100278.00;;;1.19;100.00
23473;BME280;11909;52.516;13.564;2022-12-07T06:11:20;100262.28;;;1.27;100.00
23473;BME280;11909;52.516;13.564;2022-12-07T06:14:05;100262.63;;;1.19;100.00
23473;BME280;11909;52.516;13.564;2022-12-07T06:16:34;100255.31;;;1.20;100.00
23473;BME280;11909;52.516;13.564;2022-12-07T06:19:02;100253.50;;;1.32;100.00
23473;BME280;11909;52.516;13.564;2022-12-07T06:21:30;100238.66;;;1.35;100.00
23473;BME280;11909;52.516;13.564;2022-12-07T06:23:57;100240.69;;;1.39;100.00
23473;BME280;11909;52.516;13.564;2022-12-07T06:26:25;100246.13;;;1.51;100.00
23473;BME280;11909;52.516;13.564;2022-12-07T06:28:53;100240.00;;;1.44;100.00
23473;BME280;11909;52.516;13.564;2022-12-07T06:31:20;100232.09;;;1.42;100.00
23473;BME280;11909;52.516;13.564;2022-12-07T06:33:50;100225.66;;;1.55;100.00
23473;BME280;11909;52.516;13.564;2022-12-07T06:36:17;100227.88;;;1.58;100.00
23473;BME280;11909;52.516;13.564;2022-12-07T06:38:52;100234.34;;;1.57;100.00
23473;BME280;11909;52.516;13.564;2022-12-07T06:41:20;100241.88;;;1.55;100.00
23473;BME280;11909;52.516;13.564;2022-12-07T06:43:48;100231.31;;;1.54;100.00
23473;BME280;11909;52.516;13.564;2022-12-07T06:46:22;100235.41;;;1.56;100.00
23473;BME280;11909;52.516;13.564;2022-12-07T06:48:51;100237.53;;;1.54;100.00
23473;BME280;11909;52.516;13.564;2022-12-07T06:51:19;100240.03;;;1.56;100.00
23473;BME280;11909;52.516;13.564;2022-12-07T06:53:47;100240.03;;;1.56;100.00
23473;BME280;11909;52.516;13.564;2022-12-07T06:56:15;100229.31;;;1.61;100.00
23473;BME280;11909;52.516;13.564;2022-12-07T06:58:42;100227.56;;;1.67;100.00
23473;BME280;11909;52.516;13.564;2022-12-07T07:01:10;100241.31;;;1.65;100.00
23473;BME280;11909;52.516;13.564;2022-12-07T07:03:39;100235.56;;;1.62;100.00
23473;BME280;11909;52.516;13.564;2022-12-07T07:06:08;100225.78;;;1.61;100.00
23473;BME280;11909;52.516;13.564;2022-12-07T07:08:37;100227.19;;;1.63;100.00
23473;BME280;11909;52.516;13.564;2022-12-07T07:11:06;100221.81;;;1.75;100.00
23473;BME280;11909;52.516;13.564;2022-12-07T07:13:34;100226.25;;;1.81;100.00
23473;BME280;11909;52.516;13.564;2022-12-07T07:16:02;100233.00;;;1.79;100.00
23473;BME280;11909;52.516;13.564;2022-12-07T07:18:30;100227.69;;;1.84;100.00
23473;BME280;11909;52.516;13.564;2022-12-07T07:20:57;100231.34;;;1.90;100.00
23473;BME280;11909;52.516;13.564;2022-12-07T07:23:26;100229.91;;;1.87;100.00
23473;BME280;11909;52.516;13.564;2022-12-07T07:25:54;100230.75;;;1.99;100.00
23473;BME280;11909;52.516;13.564;2022-12-07T07:28:22;100228.03;;;1.99;100.00
23473;BME280;11909;52.516;13.564;2022-12-07T07:30:50;100233.69;;;2.10;100.00
23473;BME280;11909;52.516;13.564;2022-12-07T07:33:17;100234.75;;;2.09;100.00
23473;BME280;11909;52.516;13.564;2022-12-07T07:35:45;100229.53;;;2.07;100.00
23473;BME280;11909;52.516;13.564;2022-12-07T07:38:13;100222.97;;;2.15;100.00
23473;BME280;11909;52.516;13.564;2022-12-07T07:40:42;100230.97;;;2.10;100.00
23473;BME280;11909;52.516;13.564;2022-12-07T07:43:10;100218.84;;;2.12;100.00
23473;BME280;11909;52.516;13.564;2022-12-07T07:45:37;100215.88;;;2.26;100.00
23473;BME280;11909;52.516;13.564;2022-12-07T07:48:05;100214.72;;;2.22;100.00
23473;BME280;11909;52.516;13.564;2022-12-07T07:50:33;100215.41;;;2.17;100.00
23473;BME280;11909;52.516;13.564;2022-12-07T07:53:01;100217.19;;;2.23;100.00
23473;BME280;11909;52.516;13.564;2022-12-07T07:55:28;100226.50;;;2.27;100.00
23473;BME280;11909;52.516;13.564;2022-12-07T07:57:57;100224.84;;;2.26;100.00
23473;BME280;11909;52.516;13.564;2022-12-07T08:00:25;100223.31;;;2.31;100.00
23473;BME280;11909;52.516;13.564;2022-12-07T08:02:53;100223.66;;;2.34;100.00
23473;BME280;11909;52.516;13.564;2022-12-07T08:05:21;100226.84;;;2.31;100.00
23473;BME280;11909;52.516;13.564;2022-12-07T08:07:49;100234.50;;;2.34;100.00
23473;BME280;11909;52.516;13.564;2022-12-07T08:10:16;100237.31;;;2.39;100.00
23473;BME280;11909;52.516;13.564;2022-12-07T08:12:44;100240.00;;;2.39;100.00
23473;BME280;11909;52.516;13.564;2022-12-07T08:15:31;100231.78;;;2.34;100.00
23473;BME280;11909;52.516;13.564;2022-12-07T08:17:59;100240.97;;;2.33;100.00
23473;BME280;11909;52.516;13.564;2022-12-07T08:20:29;100243.06;;;2.43;100.00
23473;BME280;11909;52.516;13.564;2022-12-07T08:22:57;100248.22;;;2.44;100.00
23473;BME280;11909;52.516;13.564;2022-12-07T08:25:24;100241.88;;;2.39;100.00
23473;BME280;11909;52.516;13.564;2022-12-07T08:27:52;100248.34;;;2.38;100.00
23473;BME280;11909;52.516;13.564;2022-12-07T08:30:20;100242.09;;;2.49;100.00
23473;BME280;11909;52.516;13.564;2022-12-07T08:32:50;100250.47;;;2.48;100.00
23473;BME280;11909;52.516;13.564;2022-12-07T08:35:17;100256.16;;;2.34;100.00
23473;BME280;11909;52.516;13.564;2022-12-07T08:37:45;100254.34;;;2.40;100.00
23473;BME280;11909;52.516;13.564;2022-12-07T08:40:13;100247.44;;;2.44;100.00
23473;BME280;11909;52.516;13.564;2022-12-07T08:42:42;100265.91;;;2.47;100.00
23473;BME280;11909;52.516;13.564;2022-12-07T08:45:13;100243.97;;;2.49;100.00
23473;BME280;11909;52.516;13.564;2022-12-07T08:47:44;100254.50;;;2.45;100.00
23473;BME280;11909;52.516;13.564;2022-12-07T08:50:14;100251.91;;;2.38;100.00
23473;BME280;11909;52.516;13.564;2022-12-07T08:52:42;100258.00;;;2.46;100.00
23473;BME280;11909;52.516;13.564;2022-12-07T08:55:11;100260.13;;;2.43;100.00
23473;BME280;11909;52.516;13.564;2022-12-07T08:57:39;100259.75;;;2.52;100.00
23473;BME280;11909;52.516;13.564;2022-12-07T09:00:10;100267.28;;;2.50;100.00
23473;BME280;11909;52.516;13.564;2022-12-07T09:02:37;100272.94;;;2.60;100.00
23473;BME280;11909;52.516;13.564;2022-12-07T09:05:05;100267.88;;;2.52;100.00
23473;BME280;11909;52.516;13.564;2022-12-07T09:07:44;100284.00;;;2.58;97.83
23473;BME280;11909;52.516;13.564;2022-12-07T09:10:13;100275.78;;;2.53;99.64
23473;BME280;11909;52.516;13.564;2022-12-07T09:12:41;100272.50;;;2.51;99.56
23473;BME280;11909;52.516;13.564;2022-12-07T09:15:09;100281.09;;;2.48;99.24
23473;BME280;11909;52.516;13.564;2022-12-07T09:17:36;100283.91;;;2.53;98.71
23473;BME280;11909;52.516;13.564;2022-12-07T09:20:06;100279.44;;;2.59;96.60
23473;BME280;11909;52.516;13.564;2022-12-07T09:22:34;100297.22;;;2.55;95.95
23473;BME280;11909;52.516;13.564;2022-12-07T09:25:03;100302.50;;;2.62;95.49
23473;BME280;11909;52.516;13.564;2022-12-07T09:27:31;100289.09;;;2.55;96.35
23473;BME280;11909;52.516;13.564;2022-12-07T09:29:59;100294.38;;;2.50;95.67
23473;BME280;11909;52.516;13.564;2022-12-07T09:32:27;100300.16;;;2.65;95.33
23473;BME280;11909;52.516;13.564;2022-12-07T09:34:55;100305.94;;;2.57;94.51
23473;BME280;11909;52.516;13.564;2022-12-07T09:37:23;100310.97;;;2.65;93.10
23473;BME280;11909;52.516;13.564;2022-12-07T09:39:50;100314.66;;;2.59;91.62
23473;BME280;11909;52.516;13.564;2022-12-07T09:42:26;100310.63;;;2.50;89.58
23473;BME280;11909;52.516;13.564;2022-12-07T09:44:55;100317.97;;;2.49;88.84
23473;BME280;11909;52.516;13.564;2022-12-07T09:47:23;100321.38;;;2.44;89.30
23473;BME280;11909;52.516;13.564;2022-12-07T09:49:51;100323.72;;;2.41;89.85
23473;BME280;11909;52.516;13.564;2022-12-07T09:52:21;100332.69;;;2.41;89.90
23473;BME280;11909;52.516;13.564;2022-12-07T09:54:52;100331.50;;;2.49;89.78
23473;BME280;11909;52.516;13.564;2022-12-07T09:57:27;100332.31;;;2.50;90.73
23473;BME280;11909;52.516;13.564;2022-12-07T09:59:56;100332.31;;;2.50;90.80
23473;BME280;11909;52.516;13.564;2022-12-07T10:02:34;100340.69;;;2.48;88.60
23473;BME280;11909;52.516;13.564;2022-12-07T10:05:05;100350.56;;;2.54;89.60
23473;BME280;11909;52.516;13.564;2022-12-07T10:07:34;100339.38;;;2.51;89.53
23473;BME280;11909;52.516;13.564;2022-12-07T10:10:03;100342.56;;;2.48;88.13
23473;BME280;11909;52.516;13.564;2022-12-07T10:12:52;100338.91;;;2.42;89.86
23473;BME280;11909;52.516;13.564;2022-12-07T10:15:20;100345.75;;;2.44;87.99
23473;BME280;11909;52.516;13.564;2022-12-07T10:17:49;100341.97;;;2.34;89.23
23473;BME280;11909;52.516;13.564;2022-12-07T10:20:22;100325.34;;;2.42;90.70
23473;BME280;11909;52.516;13.564;2022-12-07T10:22:55;100331.84;;;2.41;89.90
23473;BME280;11909;52.516;13.564;2022-12-07T10:25:27;100337.13;;;2.48;88.38
23473;BME280;11909;52.516;13.564;2022-12-07T10:28:00;100340.22;;;2.39;87.36
23473;BME280;11909;52.516;13.564;2022-12-07T10:30:30;100348.22;;;2.46;86.37
23473;BME280;11909;52.516;13.564;2022-12-07T10:32:59;100359.28;;;2.44;85.30
23473;BME280;11909;52.516;13.564;2022-12-07T10:35:28;100353.41;;;2.48;86.48
23473;BME280;11909;52.516;13.564;2022-12-07T10:37:58;100356.56;;;2.44;85.79
23473;BME280;11909;52.516;13.564;2022-12-07T10:40:32;100335.50;;;2.47;85.94
23473;BME280;11909;52.516;13.564;2022-12-07T10:43:04;100343.16;;;2.50;86.96
23473;BME280;11909;52.516;13.564;2022-12-07T10:45:32;100342.34;;;2.49;86.82
23473;BME280;11909;52.516;13.564;2022-12-07T10:48:25;100343.28;;;2.55;87.32
23473;BME280;11909;52.516;13.564;2022-12-07T10:51:05;100349.59;;;2.72;85.51
23473;BME280;11909;52.516;13.564;2022-12-07T10:53:47;100343.00;;;2.68;85.22
23473;BME280;11909;52.516;13.564;2022-12-07T10:59:29;100354.34;;;2.65;86.07
23473;BME280;11909;52.516;13.564;2022-12-07T11:02:19;100342.06;;;2.63;85.77
23473;BME280;11909;52.516;13.564;2022-12-07T11:05:06;100341.50;;;2.61;86.39
23473;BME280;11909;52.516;13.564;2022-12-07T11:07:43;100341.84;;;2.64;87.15
23473;BME280;11909;52.516;13.564;2022-12-07T11:10:26;100339.25;;;2.69;87.56
23473;BME280;11909;52.516;13.564;2022-12-07T11:13:20;100341.63;;;2.66;86.33
23473;BME280;11909;52.516;13.564;2022-12-07T11:16:02;100337.50;;;2.63;87.29
23473;BME280;11909;52.516;13.564;2022-12-07T11:18:36;100328.06;;;2.66;87.12
23473;BME280;11909;52.516;13.564;2022-12-07T11:21:14;100327.72;;;2.62;87.58
23473;BME280;11909;52.516;13.564;2022-12-07T11:23:49;100327.94;;;2.61;88.57
23473;BME280;11909;52.516;13.564;2022-12-07T11:26:29;100316.28;;;2.60;89.11
23473;BME280;11909;52.516;13.564;2022-12-07T11:29:21;100338.06;;;2.65;88.44
23473;BME280;11909;52.516;13.564;2022-12-07T11:32:01;100334.06;;;2.68;88.29
23473;BME280;11909;52.516;13.564;2022-12-07T11:34:39;100317.84;;;2.56;88.67
23473;BME280;11909;52.516;13.564;2022-12-07T11:37:15;100329.72;;;2.67;88.54
23473;BME280;11909;52.516;13.564;2022-12-07T11:39:47;100321.69;;;2.72;87.78
23473;BME280;11909;52.516;13.564;2022-12-07T11:42:20;100317.69;;;2.63;88.44
23473;BME280;11909;52.516;13.564;2022-12-07T11:44:52;100318.75;;;2.62;89.43
23473;BME280;11909;52.516;13.564;2022-12-07T11:47:27;100310.78;;;2.55;89.78
23473;BME280;11909;52.516;13.564;2022-12-07T11:50:05;100312.16;;;2.69;88.27
23473;BME280;11909;52.516;13.564;2022-12-07T11:52:43;100312.63;;;2.66;88.81
23473;BME280;11909;52.516;13.564;2022-12-07T11:55:19;100307.09;;;2.73;88.20
23473;BME280;11909;52.516;13.564;2022-12-07T11:57:53;100310.47;;;2.80;88.32
23473;BME280;11909;52.516;13.564;2022-12-07T12:00:24;100318.50;;;2.75;88.57
23473;BME280;11909;52.516;13.564;2022-12-07T12:02:57;100314.84;;;2.81;88.45
23473;BME280;11909;52.516;13.564;2022-12-07T12:05:27;100308.47;;;2.76;88.02
23473;BME280;11909;52.516;13.564;2022-12-07T12:08:03;100311.63;;;2.84;87.82
23473;BME280;11909;52.516;13.564;2022-12-07T12:11:05;100310.00;;;2.71;88.63
23473;BME280;11909;52.516;13.564;2022-12-07T12:13:58;100297.50;;;2.82;88.01
23473;BME280;11909;52.516;13.564;2022-12-07T12:17:05;100300.78;;;2.84;87.61
23473;BME280;11909;52.516;13.564;2022-12-07T12:19:41;100290.44;;;2.81;88.31
23473;BME280;11909;52.516;13.564;2022-12-07T12:22:13;100287.25;;;2.84;88.17
23473;BME280;11909;52.516;13.564;2022-12-07T12:24:43;100283.94;;;2.82;87.92
23473;BME280;11909;52.516;13.564;2022-12-07T12:27:20;100290.88;;;2.90;87.56
23473;BME280;11909;52.516;13.564;2022-12-07T12:29:53;100290.78;;;2.85;88.46
23473;BME280;11909;52.516;13.564;2022-12-07T12:32:30;100283.03;;;2.89;88.63
23473;BME280;11909;52.516;13.564;2022-12-07T12:35:21;100282.28;;;2.93;88.58
23473;BME280;11909;52.516;13.564;2022-12-07T12:37:53;100288.84;;;2.97;88.23
23473;BME280;11909;52.516;13.564;2022-12-07T12:40:41;100282.63;;;2.97;87.96
23473;BME280;11909;52.516;13.564;2022-12-07T12:43:45;100287.38;;;2.90;88.58
23473;BME280;11909;52.516;13.564;2022-12-07T12:46:50;100295.78;;;3.05;86.51
23473;BME280;11909;52.516;13.564;2022-12-07T12:49:42;100284.63;;;3.01;87.72
23473;BME280;11909;52.516;13.564;2022-12-07T12:58:38;100279.88;;;3.09;88.09
23473;BME280;11909;52.516;13.564;2022-12-07T13:04:38;100278.44;;;3.06;88.17
23473;BME280;11909;52.516;13.564;2022-12-07T13:07:12;100278.22;;;3.08;89.01
23473;BME280;11909;52.516;13.564;2022-12-07T13:09:43;100277.66;;;3.06;89.01
23473;BME280;11909;52.516;13.564;2022-12-07T13:12:13;100271.38;;;3.05;88.72
23473;BME280;11909;52.516;13.564;2022-12-07T13:14:55;100277.34;;;3.19;88.11
23473;BME280;11909;52.516;13.564;2022-12-07T13:17:57;100290.81;;;3.14;88.13
23473;BME280;11909;52.516;13.564;2022-12-07T13:20:50;100286.44;;;3.13;88.55
23473;BME280;11909;52.516;13.564;2022-12-07T13:23:20;100285.66;;;3.12;88.71